sensor_id;sensor_type;location;lat;lon;timestamp;P1;durP1;ratioP1;P2;durP2;ratioP2
4933;SDS011;2482;49.154;8.254;2023-06-26T00:00:03;6.60;;;5.83;;
4933;SDS011;2482;49.154;8.254;2023-06-26T00:02:31;7.20;;;5.70;;
4933;SDS011;2482;49.154;8.254;2023-06-26T00:04:59;7.93;;;6.17;;
4933;SDS011;2482;49.154;8.254;2023-06-26T00:07:29;6.30;;;5.70;;
4933;SDS011;2482;49.154;8.254;2023-06-26T00:09:57;6.37;;;5.77;;
4933;SDS011;2482;49.154;8.254;2023-06-26T00:12:25;6.43;;;5.83;;
4933;SDS011;2482;49.154;8.254;2023-06-26T00:14:52;6.53;;;5.50;;
4933;SDS011;2482;49.154;8.254;2023-06-26T00:17:19;7.20;;;5.77;;
4933;SDS011;2482;49.154;8.254;2023-06-26T00:19:47;7.63;;;5.80;;
4933;SDS011;2482;49.154;8.254;2023-06-26T00:22:14;7.40;;;6.70;;
4933;SDS011;2482;49.154;8.254;2023-06-26T00:24:41;9.27;;;6.30;;
4933;SDS011;2482;49.154;8.254;2023-06-26T00:27:11;8.83;;;6.80;;
4933;SDS011;2482;49.154;8.254;2023-06-26T00:29:38;7.90;;;5.97;;
4933;SDS011;2482;49.154;8.254;2023-06-26T00:32:06;7.37;;;6.57;;
4933;SDS011;2482;49.154;8.254;2023-06-26T00:34:33;7.53;;;6.17;;
4933;SDS011;2482;49.154;8.254;2023-06-26T00:37:00;8.43;;;5.63;;
4933;SDS011;2482;49.154;8.254;2023-06-26T00:39:27;6.40;;;5.70;;
4933;SDS011;2482;49.154;8.254;2023-06-26T00:41:54;6.90;;;6.20;;
4933;SDS011;2482;49.154;8.254;2023-06-26T00:44:21;8.13;;;6.40;;
4933;SDS011;2482;49.154;8.254;2023-06-26T00:46:49;6.23;;;5.63;;
4933;SDS011;2482;49.154;8.254;2023-06-26T00:49:16;7.00;;;6.27;;
4933;SDS011;2482;49.154;8.254;2023-06-26T00:51:43;6.23;;;5.57;;
4933;SDS011;2482;49.154;8.254;2023-06-26T00:54:10;9.60;;;6.23;;
4933;SDS011;2482;49.154;8.254;2023-06-26T00:56:37;6.60;;;5.93;;
4933;SDS011;2482;49.154;8.254;2023-06-26T00:59:06;7.00;;;6.27;;
4933;SDS011;2482;49.154;8.254;2023-06-26T01:01:33;8.13;;;6.00;;
4933;SDS011;2482;49.154;8.254;2023-06-26T01:04:00;7.33;;;6.17;;
4933;SDS011;2482;49.154;8.254;2023-06-26T01:06:27;7.20;;;5.40;;
4933;SDS011;2482;49.154;8.254;2023-06-26T01:09:02;6.30;;;5.67;;
4933;SDS011;2482;49.154;8.254;2023-06-26T01:11:29;9.10;;;6.83;;
4933;SDS011;2482;49.154;8.254;2023-06-26T01:13:57;7.97;;;6.67;;
4933;SDS011;2482;49.154;8.254;2023-06-26T01:16:27;7.03;;;6.30;;
4933;SDS011;2482;49.154;8.254;2023-06-26T01:18:56;8.23;;;6.60;;
4933;SDS011;2482;49.154;8.254;2023-06-26T01:21:23;7.67;;;6.53;;
4933;SDS011;2482;49.154;8.254;2023-06-26T01:24:02;6.70;;;5.90;;
4933;SDS011;2482;49.154;8.254;2023-06-26T01:26:41;9.07;;;6.63;;
4933;SDS011;2482;49.154;8.254;2023-06-26T01:29:10;6.90;;;6.20;;
4933;SDS011;2482;49.154;8.254;2023-06-26T01:31:39;9.27;;;6.60;;
4933;SDS011;2482;49.154;8.254;2023-06-26T01:34:07;7.97;;;6.40;;
4933;SDS011;2482;49.154;8.254;2023-06-26T01:36:34;9.50;;;7.00;;
4933;SDS011;2482;49.154;8.254;2023-06-26T01:39:01;7.87;;;7.00;;
4933;SDS011;2482;49.154;8.254;2023-06-26T01:41:28;8.20;;;7.17;;
4933;SDS011;2482;49.154;8.254;2023-06-26T01:46:55;9.30;;;7.30;;
4933;SDS011;2482;49.154;8.254;2023-06-26T01:58:05;7.83;;;6.47;;
4933;SDS011;2482;49.154;8.254;2023-06-26T02:00:33;9.77;;;7.80;;
4933;SDS011;2482;49.154;8.254;2023-06-26T02:03:01;7.60;;;6.80;;
4933;SDS011;2482;49.154;8.254;2023-06-26T02:05:29;8.70;;;7.17;;
4933;SDS011;2482;49.154;8.254;2023-06-26T02:07:57;12.60;;;7.43;;
4933;SDS011;2482;49.154;8.254;2023-06-26T02:10:24;11.37;;;6.70;;
4933;SDS011;2482;49.154;8.254;2023-06-26T02:12:51;8.13;;;6.60;;
4933;SDS011;2482;49.154;8.254;2023-06-26T02:15:18;7.97;;;7.03;;
4933;SDS011;2482;49.154;8.254;2023-06-26T02:17:45;9.97;;;7.23;;
4933;SDS011;2482;49.154;8.254;2023-06-26T02:20:14;10.93;;;8.10;;
4933;SDS011;2482;49.154;8.254;2023-06-26T02:22:42;12.10;;;7.30;;
4933;SDS011;2482;49.154;8.254;2023-06-26T02:25:09;8.83;;;7.93;;
4933;SDS011;2482;49.154;8.254;2023-06-26T02:27:38;8.80;;;6.70;;
4933;SDS011;2482;49.154;8.254;2023-06-26T02:30:05;11.00;;;7.70;;
4933;SDS011;2482;49.154;8.254;2023-06-26T02:32:34;8.80;;;7.00;;
4933;SDS011;2482;49.154;8.254;2023-06-26T02:35:01;8.60;;;7.23;;
4933;SDS011;2482;49.154;8.254;2023-06-26T02:37:28;10.57;;;8.03;;
4933;SDS011;2482;49.154;8.254;2023-06-26T02:39:55;9.00;;;7.47;;
4933;SDS011;2482;49.154;8.254;2023-06-26T02:42:23;8.47;;;6.77;;
4933;SDS011;2482;49.154;8.254;2023-06-26T02:44:50;7.37;;;6.57;;
4933;SDS011;2482;49.154;8.254;2023-06-26T02:47:17;10.37;;;7.37;;
4933;SDS011;2482;49.154;8.254;2023-06-26T02:49:44;7.80;;;7.00;;
4933;SDS011;2482;49.154;8.254;2023-06-26T02:52:11;12.03;;;7.93;;
4933;SDS011;2482;49.154;8.254;2023-06-26T02:54:38;13.03;;;7.50;;
4933;SDS011;2482;49.154;8.254;2023-06-26T02:57:05;11.20;;;7.67;;
4933;SDS011;2482;49.154;8.254;2023-06-26T02:59:32;9.30;;;7.50;;
4933;SDS011;2482;49.154;8.254;2023-06-26T03:01:59;7.60;;;6.67;;
4933;SDS011;2482;49.154;8.254;2023-06-26T03:04:26;8.93;;;7.00;;
4933;SDS011;2482;49.154;8.254;2023-06-26T03:06:53;8.43;;;6.83;;
4933;SDS011;2482;49.154;8.254;2023-06-26T03:09:20;9.57;;;7.23;;
4933;SDS011;2482;49.154;8.254;2023-06-26T03:11:48;7.87;;;7.07;;
4933;SDS011;2482;49.154;8.254;2023-06-26T03:14:15;9.47;;;7.40;;
4933;SDS011;2482;49.154;8.254;2023-06-26T03:16:42;8.70;;;7.70;;
4933;SDS011;2482;49.154;8.254;2023-06-26T03:19:10;8.57;;;7.30;;
4933;SDS011;2482;49.154;8.254;2023-06-26T03:21:37;7.80;;;6.43;;
4933;SDS011;2482;49.154;8.254;2023-06-26T03:24:04;12.03;;;7.40;;
4933;SDS011;2482;49.154;8.254;2023-06-26T03:26:31;10.43;;;6.83;;
4933;SDS011;2482;49.154;8.254;2023-06-26T03:29:00;11.03;;;7.60;;
4933;SDS011;2482;49.154;8.254;2023-06-26T03:31:27;10.57;;;7.90;;
4933;SDS011;2482;49.154;8.254;2023-06-26T03:33:54;10.50;;;8.10;;
4933;SDS011;2482;49.154;8.254;2023-06-26T03:36:21;9.33;;;7.87;;
4933;SDS011;2482;49.154;8.254;2023-06-26T03:38:48;8.30;;;7.40;;
4933;SDS011;2482;49.154;8.254;2023-06-26T03:41:15;8.83;;;7.00;;
4933;SDS011;2482;49.154;8.254;2023-06-26T03:43:42;9.27;;;7.57;;
4933;SDS011;2482;49.154;8.254;2023-06-26T03:46:09;14.50;;;8.13;;
4933;SDS011;2482;49.154;8.254;2023-06-26T03:48:36;10.40;;;7.60;;
4933;SDS011;2482;49.154;8.254;2023-06-26T03:51:04;9.23;;;7.57;;
4933;SDS011;2482;49.154;8.254;2023-06-26T03:53:33;18.07;;;7.07;;
4933;SDS011;2482;49.154;8.254;2023-06-26T03:56:00;9.50;;;7.87;;
4933;SDS011;2482;49.154;8.254;2023-06-26T03:58:28;9.07;;;7.80;;
4933;SDS011;2482;49.154;8.254;2023-06-26T04:00:55;8.00;;;7.20;;
4933;SDS011;2482;49.154;8.254;2023-06-26T04:03:22;9.67;;;7.30;;
4933;SDS011;2482;49.154;8.254;2023-06-26T04:05:49;10.93;;;8.20;;
4933;SDS011;2482;49.154;8.254;2023-06-26T04:08:16;8.43;;;6.53;;
4933;SDS011;2482;49.154;8.254;2023-06-26T04:10:43;8.97;;;7.73;;
4933;SDS011;2482;49.154;8.254;2023-06-26T04:13:11;10.17;;;7.50;;
4933;SDS011;2482;49.154;8.254;2023-06-26T04:15:39;10.27;;;7.67;;
4933;SDS011;2482;49.154;8.254;2023-06-26T04:18:06;11.50;;;7.43;;
4933;SDS011;2482;49.154;8.254;2023-06-26T04:20:37;11.03;;;7.80;;
4933;SDS011;2482;49.154;8.254;2023-06-26T04:23:06;11.97;;;7.53;;
4933;SDS011;2482;49.154;8.254;2023-06-26T04:25:33;9.30;;;8.27;;
4933;SDS011;2482;49.154;8.254;2023-06-26T04:28:00;12.43;;;7.90;;
4933;SDS011;2482;49.154;8.254;2023-06-26T04:30:27;8.47;;;7.47;;
4933;SDS011;2482;49.154;8.254;2023-06-26T04:32:54;8.33;;;7.20;;
4933;SDS011;2482;49.154;8.254;2023-06-26T04:35:25;9.50;;;7.20;;
4933;SDS011;2482;49.154;8.254;2023-06-26T04:37:52;8.17;;;7.20;;
4933;SDS011;2482;49.154;8.254;2023-06-26T04:40:19;10.70;;;8.00;;
4933;SDS011;2482;49.154;8.254;2023-06-26T04:42:46;11.30;;;8.07;;
4933;SDS011;2482;49.154;8.254;2023-06-26T04:45:13;13.83;;;8.00;;
4933;SDS011;2482;49.154;8.254;2023-06-26T04:47:40;8.40;;;7.07;;
4933;SDS011;2482;49.154;8.254;2023-06-26T04:50:07;10.17;;;7.10;;
4933;SDS011;2482;49.154;8.254;2023-06-26T04:52:35;8.40;;;7.40;;
4933;SDS011;2482;49.154;8.254;2023-06-26T04:55:03;11.43;;;6.80;;
4933;SDS011;2482;49.154;8.254;2023-06-26T04:57:31;10.43;;;7.30;;
4933;SDS011;2482;49.154;8.254;2023-06-26T04:59:58;7.33;;;6.53;;
4933;SDS011;2482;49.154;8.254;2023-06-26T05:02:25;12.63;;;7.40;;
4933;SDS011;2482;49.154;8.254;2023-06-26T05:04:53;8.30;;;7.20;;
4933;SDS011;2482;49.154;8.254;2023-06-26T05:07:20;8.77;;;7.13;;
4933;SDS011;2482;49.154;8.254;2023-06-26T05:09:47;9.60;;;7.80;;
4933;SDS011;2482;49.154;8.254;2023-06-26T05:12:14;14.07;;;6.97;;
4933;SDS011;2482;49.154;8.254;2023-06-26T05:14:41;13.03;;;7.50;;
4933;SDS011;2482;49.154;8.254;2023-06-26T05:17:08;11.87;;;7.33;;
4933;SDS011;2482;49.154;8.254;2023-06-26T05:19:35;12.00;;;8.40;;
4933;SDS011;2482;49.154;8.254;2023-06-26T05:22:02;13.43;;;7.50;;
4933;SDS011;2482;49.154;8.254;2023-06-26T05:24:36;14.60;;;7.00;;
4933;SDS011;2482;49.154;8.254;2023-06-26T05:27:05;8.93;;;7.03;;
4933;SDS011;2482;49.154;8.254;2023-06-26T05:29:33;14.83;;;8.07;;
4933;SDS011;2482;49.154;8.254;2023-06-26T05:32:04;9.43;;;6.83;;
4933;SDS011;2482;49.154;8.254;2023-06-26T05:34:31;9.87;;;7.30;;
4933;SDS011;2482;49.154;8.254;2023-06-26T05:37:00;8.13;;;6.70;;
4933;SDS011;2482;49.154;8.254;2023-06-26T05:39:28;7.70;;;6.90;;
4933;SDS011;2482;49.154;8.254;2023-06-26T05:41:55;8.77;;;6.53;;
4933;SDS011;2482;49.154;8.254;2023-06-26T05:44:23;8.67;;;7.17;;
4933;SDS011;2482;49.154;8.254;2023-06-26T05:46:50;11.10;;;7.50;;
4933;SDS011;2482;49.154;8.254;2023-06-26T05:49:17;8.17;;;6.73;;
4933;SDS011;2482;49.154;8.254;2023-06-26T05:51:44;7.63;;;6.83;;
4933;SDS011;2482;49.154;8.254;2023-06-26T05:54:12;8.07;;;7.27;;
4933;SDS011;2482;49.154;8.254;2023-06-26T05:56:40;9.83;;;7.00;;
4933;SDS011;2482;49.154;8.254;2023-06-26T05:59:09;9.30;;;7.43;;
4933;SDS011;2482;49.154;8.254;2023-06-26T06:01:38;10.40;;;7.70;;
4933;SDS011;2482;49.154;8.254;2023-06-26T06:04:05;7.10;;;6.33;;
4933;SDS011;2482;49.154;8.254;2023-06-26T06:06:32;8.17;;;7.37;;
4933;SDS011;2482;49.154;8.254;2023-06-26T06:08:59;12.37;;;7.47;;
4933;SDS011;2482;49.154;8.254;2023-06-26T06:11:26;8.57;;;7.20;;
4933;SDS011;2482;49.154;8.254;2023-06-26T06:13:53;9.80;;;6.80;;
4933;SDS011;2482;49.154;8.254;2023-06-26T06:16:20;8.50;;;6.57;;
4933;SDS011;2482;49.154;8.254;2023-06-26T06:18:47;8.40;;;7.50;;
4933;SDS011;2482;49.154;8.254;2023-06-26T06:21:14;7.87;;;7.13;;
4933;SDS011;2482;49.154;8.254;2023-06-26T06:23:41;9.60;;;7.30;;
4933;SDS011;2482;49.154;8.254;2023-06-26T06:26:08;10.00;;;6.57;;
4933;SDS011;2482;49.154;8.254;2023-06-26T06:28:35;7.30;;;6.60;;
4933;SDS011;2482;49.154;8.254;2023-06-26T06:31:02;7.90;;;6.50;;
4933;SDS011;2482;49.154;8.254;2023-06-26T06:33:29;7.10;;;6.40;;
4933;SDS011;2482;49.154;8.254;2023-06-26T06:35:56;7.67;;;6.87;;
4933;SDS011;2482;49.154;8.254;2023-06-26T06:38:23;9.23;;;7.20;;
4933;SDS011;2482;49.154;8.254;2023-06-26T06:40:50;10.33;;;7.60;;
4933;SDS011;2482;49.154;8.254;2023-06-26T06:43:17;13.90;;;7.00;;
4933;SDS011;2482;49.154;8.254;2023-06-26T06:45:44;10.70;;;6.20;;
4933;SDS011;2482;49.154;8.254;2023-06-26T06:48:12;8.63;;;6.60;;
4933;SDS011;2482;49.154;8.254;2023-06-26T06:50:39;8.50;;;6.70;;
4933;SDS011;2482;49.154;8.254;2023-06-26T06:53:07;11.43;;;6.53;;
4933;SDS011;2482;49.154;8.254;2023-06-26T06:55:34;8.23;;;7.10;;
4933;SDS011;2482;49.154;8.254;2023-06-26T06:58:01;7.57;;;6.10;;
4933;SDS011;2482;49.154;8.254;2023-06-26T07:00:31;7.30;;;6.53;;
4933;SDS011;2482;49.154;8.254;2023-06-26T07:02:58;7.60;;;6.53;;
4933;SDS011;2482;49.154;8.254;2023-06-26T07:05:26;6.13;;;5.53;;
4933;SDS011;2482;49.154;8.254;2023-06-26T07:07:53;7.23;;;6.40;;
4933;SDS011;2482;49.154;8.254;2023-06-26T07:10:21;8.27;;;6.20;;
4933;SDS011;2482;49.154;8.254;2023-06-26T07:12:48;6.87;;;5.30;;
4933;SDS011;2482;49.154;8.254;2023-06-26T07:15:15;10.17;;;7.03;;
4933;SDS011;2482;49.154;8.254;2023-06-26T07:17:43;7.27;;;5.83;;
4933;SDS011;2482;49.154;8.254;2023-06-26T07:20:10;6.40;;;5.80;;
4933;SDS011;2482;49.154;8.254;2023-06-26T07:22:42;6.63;;;5.90;;
4933;SDS011;2482;49.154;8.254;2023-06-26T07:25:11;9.90;;;5.80;;
4933;SDS011;2482;49.154;8.254;2023-06-26T07:27:38;9.43;;;6.60;;
4933;SDS011;2482;49.154;8.254;2023-06-26T07:30:07;8.90;;;5.37;;
4933;SDS011;2482;49.154;8.254;2023-06-26T07:32:37;6.90;;;6.20;;
4933;SDS011;2482;49.154;8.254;2023-06-26T07:35:07;8.27;;;5.80;;
4933;SDS011;2482;49.154;8.254;2023-06-26T07:37:34;11.43;;;6.27;;
4933;SDS011;2482;49.154;8.254;2023-06-26T07:40:02;7.47;;;6.20;;
4933;SDS011;2482;49.154;8.254;2023-06-26T07:42:30;6.30;;;5.30;;
4933;SDS011;2482;49.154;8.254;2023-06-26T07:44:57;8.17;;;6.20;;
4933;SDS011;2482;49.154;8.254;2023-06-26T07:47:24;8.53;;;6.73;;
4933;SDS011;2482;49.154;8.254;2023-06-26T07:49:51;10.27;;;5.70;;
4933;SDS011;2482;49.154;8.254;2023-06-26T07:52:18;7.30;;;5.20;;
4933;SDS011;2482;49.154;8.254;2023-06-26T07:54:45;12.73;;;5.33;;
4933;SDS011;2482;49.154;8.254;2023-06-26T07:57:12;7.37;;;5.20;;
4933;SDS011;2482;49.154;8.254;2023-06-26T07:59:39;7.53;;;6.17;;
4933;SDS011;2482;49.154;8.254;2023-06-26T08:02:07;8.67;;;5.77;;
4933;SDS011;2482;49.154;8.254;2023-06-26T08:04:34;6.60;;;5.67;;
4933;SDS011;2482;49.154;8.254;2023-06-26T08:07:02;7.43;;;5.60;;
4933;SDS011;2482;49.154;8.254;2023-06-26T08:09:30;6.70;;;6.10;;
4933;SDS011;2482;49.154;8.254;2023-06-26T08:11:58;6.97;;;5.77;;
4933;SDS011;2482;49.154;8.254;2023-06-26T08:14:25;6.33;;;5.73;;
4933;SDS011;2482;49.154;8.254;2023-06-26T08:16:52;7.47;;;5.33;;
4933;SDS011;2482;49.154;8.254;2023-06-26T08:19:20;6.87;;;5.30;;
4933;SDS011;2482;49.154;8.254;2023-06-26T08:21:47;6.00;;;5.40;;
4933;SDS011;2482;49.154;8.254;2023-06-26T08:24:14;7.13;;;6.43;;
4933;SDS011;2482;49.154;8.254;2023-06-26T08:26:45;6.47;;;5.80;;
4933;SDS011;2482;49.154;8.254;2023-06-26T08:29:13;6.70;;;6.00;;
4933;SDS011;2482;49.154;8.254;2023-06-26T08:31:41;8.40;;;5.90;;
4933;SDS011;2482;49.154;8.254;2023-06-26T08:34:10;6.50;;;5.90;;
4933;SDS011;2482;49.154;8.254;2023-06-26T08:36:37;6.97;;;5.87;;
4933;SDS011;2482;49.154;8.254;2023-06-26T08:39:04;7.07;;;5.60;;
4933;SDS011;2482;49.154;8.254;2023-06-26T08:41:32;6.60;;;5.53;;
4933;SDS011;2482;49.154;8.254;2023-06-26T08:43:59;5.80;;;5.20;;
4933;SDS011;2482;49.154;8.254;2023-06-26T08:46:27;5.97;;;5.20;;
4933;SDS011;2482;49.154;8.254;2023-06-26T08:48:55;7.87;;;5.43;;
4933;SDS011;2482;49.154;8.254;2023-06-26T08:51:28;6.97;;;5.50;;
4933;SDS011;2482;49.154;8.254;2023-06-26T08:53:57;5.87;;;5.23;;
4933;SDS011;2482;49.154;8.254;2023-06-26T08:56:31;8.97;;;5.60;;
4933;SDS011;2482;49.154;8.254;2023-06-26T08:59:03;5.73;;;5.13;;
4933;SDS011;2482;49.154;8.254;2023-06-26T09:01:31;6.93;;;4.93;;
4933;SDS011;2482;49.154;8.254;2023-06-26T09:03:58;7.60;;;5.87;;
4933;SDS011;2482;49.154;8.254;2023-06-26T09:06:25;7.00;;;4.87;;
4933;SDS011;2482;49.154;8.254;2023-06-26T09:08:53;6.37;;;4.90;;
4933;SDS011;2482;49.154;8.254;2023-06-26T09:11:21;7.23;;;5.03;;
4933;SDS011;2482;49.154;8.254;2023-06-26T09:13:48;9.83;;;4.50;;
4933;SDS011;2482;49.154;8.254;2023-06-26T09:16:15;9.30;;;5.17;;
4933;SDS011;2482;49.154;8.254;2023-06-26T09:18:42;6.97;;;4.60;;
4933;SDS011;2482;49.154;8.254;2023-06-26T09:21:13;5.67;;;4.97;;
4933;SDS011;2482;49.154;8.254;2023-06-26T09:23:40;7.03;;;4.53;;
4933;SDS011;2482;49.154;8.254;2023-06-26T09:26:08;7.23;;;4.47;;
4933;SDS011;2482;49.154;8.254;2023-06-26T09:28:35;8.47;;;5.37;;
4933;SDS011;2482;49.154;8.254;2023-06-26T09:31:02;5.50;;;4.47;;
4933;SDS011;2482;49.154;8.254;2023-06-26T09:33:34;11.50;;;5.40;;
4933;SDS011;2482;49.154;8.254;2023-06-26T09:36:07;12.67;;;5.50;;
4933;SDS011;2482;49.154;8.254;2023-06-26T09:38:46;6.50;;;4.40;;
4933;SDS011;2482;49.154;8.254;2023-06-26T09:41:17;7.53;;;5.20;;
4933;SDS011;2482;49.154;8.254;2023-06-26T09:43:48;9.50;;;5.80;;
4933;SDS011;2482;49.154;8.254;2023-06-26T09:46:16;5.23;;;4.83;;
4933;SDS011;2482;49.154;8.254;2023-06-26T09:48:58;13.47;;;5.37;;
4933;SDS011;2482;49.154;8.254;2023-06-26T09:51:34;7.60;;;4.57;;
4933;SDS011;2482;49.154;8.254;2023-06-26T09:54:03;8.93;;;4.90;;
4933;SDS011;2482;49.154;8.254;2023-06-26T09:56:31;6.70;;;4.97;;
4933;SDS011;2482;49.154;8.254;2023-06-26T09:59:00;14.67;;;5.40;;
4933;SDS011;2482;49.154;8.254;2023-06-26T10:01:30;12.23;;;5.50;;
4933;SDS011;2482;49.154;8.254;2023-06-26T10:03:58;5.13;;;4.63;;
4933;SDS011;2482;49.154;8.254;2023-06-26T10:06:34;10.70;;;5.50;;
4933;SDS011;2482;49.154;8.254;2023-06-26T10:09:03;6.20;;;5.33;;
4933;SDS011;2482;49.154;8.254;2023-06-26T10:11:36;10.93;;;5.23;;
4933;SDS011;2482;49.154;8.254;2023-06-26T10:14:08;8.10;;;5.60;;
4933;SDS011;2482;49.154;8.254;2023-06-26T10:16:43;6.13;;;5.53;;
4933;SDS011;2482;49.154;8.254;2023-06-26T10:19:11;8.10;;;5.67;;
4933;SDS011;2482;49.154;8.254;2023-06-26T10:21:41;8.57;;;5.60;;
4933;SDS011;2482;49.154;8.254;2023-06-26T10:24:08;8.70;;;5.17;;
4933;SDS011;2482;49.154;8.254;2023-06-26T10:26:38;7.73;;;5.17;;
4933;SDS011;2482;49.154;8.254;2023-06-26T10:29:10;7.63;;;5.60;;
4933;SDS011;2482;49.154;8.254;2023-06-26T10:31:41;8.27;;;5.00;;
4933;SDS011;2482;49.154;8.254;2023-06-26T10:34:12;5.83;;;5.23;;
4933;SDS011;2482;49.154;8.254;2023-06-26T10:36:39;6.90;;;4.90;;
4933;SDS011;2482;49.154;8.254;2023-06-26T10:39:07;9.57;;;4.90;;
4933;SDS011;2482;49.154;8.254;2023-06-26T10:41:41;18.87;;;5.50;;
4933;SDS011;2482;49.154;8.254;2023-06-26T10:44:25;5.70;;;4.90;;
4933;SDS011;2482;49.154;8.254;2023-06-26T10:46:53;9.10;;;5.47;;
4933;SDS011;2482;49.154;8.254;2023-06-26T10:49:27;5.27;;;4.77;;
4933;SDS011;2482;49.154;8.254;2023-06-26T10:51:56;8.27;;;5.20;;
4933;SDS011;2482;49.154;8.254;2023-06-26T10:54:31;10.93;;;4.87;;
4933;SDS011;2482;49.154;8.254;2023-06-26T10:56:59;7.10;;;5.07;;
4933;SDS011;2482;49.154;8.254;2023-06-26T10:59:29;6.20;;;4.50;;
4933;SDS011;2482;49.154;8.254;2023-06-26T11:02:06;8.20;;;5.20;;
4933;SDS011;2482;49.154;8.254;2023-06-26T11:07:21;9.10;;;4.97;;
4933;SDS011;2482;49.154;8.254;2023-06-26T11:10:23;8.50;;;4.80;;
4933;SDS011;2482;49.154;8.254;2023-06-26T11:12:44;8.03;;;4.90;;
4933;SDS011;2482;49.154;8.254;2023-06-26T11:15:15;11.23;;;5.00;;
4933;SDS011;2482;49.154;8.254;2023-06-26T11:17:44;8.00;;;4.23;;
4933;SDS011;2482;49.154;8.254;2023-06-26T11:20:12;7.57;;;4.70;;
4933;SDS011;2482;49.154;8.254;2023-06-26T11:22:42;7.07;;;4.27;;
4933;SDS011;2482;49.154;8.254;2023-06-26T11:25:10;5.63;;;4.23;;
4933;SDS011;2482;49.154;8.254;2023-06-26T11:27:38;5.73;;;4.70;;
4933;SDS011;2482;49.154;8.254;2023-06-26T11:30:06;5.80;;;4.07;;
4933;SDS011;2482;49.154;8.254;2023-06-26T11:32:38;7.10;;;3.90;;
4933;SDS011;2482;49.154;8.254;2023-06-26T11:35:06;8.80;;;3.97;;
4933;SDS011;2482;49.154;8.254;2023-06-26T11:37:33;6.40;;;4.30;;
4933;SDS011;2482;49.154;8.254;2023-06-26T11:40:15;4.90;;;3.40;;
4933;SDS011;2482;49.154;8.254;2023-06-26T11:42:46;4.60;;;3.43;;
4933;SDS011;2482;49.154;8.254;2023-06-26T11:45:13;4.17;;;3.30;;
4933;SDS011;2482;49.154;8.254;2023-06-26T11:47:40;4.17;;;3.10;;
4933;SDS011;2482;49.154;8.254;2023-06-26T11:50:14;4.87;;;3.97;;
4933;SDS011;2482;49.154;8.254;2023-06-26T11:52:43;7.60;;;3.47;;
4933;SDS011;2482;49.154;8.254;2023-06-26T11:55:11;5.67;;;3.60;;
4933;SDS011;2482;49.154;8.254;2023-06-26T11:57:38;4.23;;;3.67;;
4933;SDS011;2482;49.154;8.254;2023-06-26T12:00:12;6.70;;;3.67;;
4933;SDS011;2482;49.154;8.254;2023-06-26T12:02:40;3.40;;;3.10;;
4933;SDS011;2482;49.154;8.254;2023-06-26T12:05:08;4.60;;;3.30;;
4933;SDS011;2482;49.154;8.254;2023-06-26T12:07:36;4.30;;;3.33;;
4933;SDS011;2482;49.154;8.254;2023-06-26T12:10:04;8.03;;;2.90;;
4933;SDS011;2482;49.154;8.254;2023-06-26T12:12:32;4.10;;;3.70;;
4933;SDS011;2482;49.154;8.254;2023-06-26T12:15:00;5.63;;;3.37;;
4933;SDS011;2482;49.154;8.254;2023-06-26T12:17:27;5.13;;;3.20;;
4933;SDS011;2482;49.154;8.254;2023-06-26T12:19:54;5.63;;;2.90;;
4933;SDS011;2482;49.154;8.254;2023-06-26T12:22:22;3.40;;;2.70;;
4933;SDS011;2482;49.154;8.254;2023-06-26T12:24:49;7.83;;;3.23;;
4933;SDS011;2482;49.154;8.254;2023-06-26T12:27:17;7.60;;;2.77;;
4933;SDS011;2482;49.154;8.254;2023-06-26T12:29:49;7.43;;;2.90;;
4933;SDS011;2482;49.154;8.254;2023-06-26T12:32:24;5.80;;;3.03;;
4933;SDS011;2482;49.154;8.254;2023-06-26T12:34:55;7.93;;;3.53;;
4933;SDS011;2482;49.154;8.254;2023-06-26T12:37:24;10.33;;;3.40;;
4933;SDS011;2482;49.154;8.254;2023-06-26T12:39:54;5.33;;;3.50;;
4933;SDS011;2482;49.154;8.254;2023-06-26T12:42:24;6.27;;;3.63;;
4933;SDS011;2482;49.154;8.254;2023-06-26T12:44:54;7.10;;;3.40;;
4933;SDS011;2482;49.154;8.254;2023-06-26T12:47:24;7.93;;;4.10;;
4933;SDS011;2482;49.154;8.254;2023-06-26T12:49:53;9.90;;;4.13;;
4933;SDS011;2482;49.154;8.254;2023-06-26T12:52:21;9.83;;;4.37;;
4933;SDS011;2482;49.154;8.254;2023-06-26T12:54:52;7.27;;;3.50;;
4933;SDS011;2482;49.154;8.254;2023-06-26T12:57:22;6.93;;;3.53;;
4933;SDS011;2482;49.154;8.254;2023-06-26T12:59:49;6.17;;;3.87;;
4933;SDS011;2482;49.154;8.254;2023-06-26T13:02:16;7.40;;;4.50;;
4933;SDS011;2482;49.154;8.254;2023-06-26T13:04:44;5.83;;;4.90;;
4933;SDS011;2482;49.154;8.254;2023-06-26T13:07:11;5.80;;;5.17;;
4933;SDS011;2482;49.154;8.254;2023-06-26T13:09:39;9.00;;;6.03;;
4933;SDS011;2482;49.154;8.254;2023-06-26T13:12:07;9.30;;;6.10;;
4933;SDS011;2482;49.154;8.254;2023-06-26T13:14:35;10.73;;;6.83;;
4933;SDS011;2482;49.154;8.254;2023-06-26T13:17:02;9.37;;;6.80;;
4933;SDS011;2482;49.154;8.254;2023-06-26T13:19:32;9.70;;;6.70;;
4933;SDS011;2482;49.154;8.254;2023-06-26T13:21:59;15.67;;;7.60;;
4933;SDS011;2482;49.154;8.254;2023-06-26T13:24:26;9.47;;;6.27;;
4933;SDS011;2482;49.154;8.254;2023-06-26T13:26:53;10.57;;;8.00;;
4933;SDS011;2482;49.154;8.254;2023-06-26T13:29:20;7.50;;;6.53;;
4933;SDS011;2482;49.154;8.254;2023-06-26T13:31:47;9.00;;;7.40;;
4933;SDS011;2482;49.154;8.254;2023-06-26T13:34:21;14.37;;;7.63;;
4933;SDS011;2482;49.154;8.254;2023-06-26T13:36:50;9.20;;;6.50;;
4933;SDS011;2482;49.154;8.254;2023-06-26T13:39:17;9.83;;;5.40;;
4933;SDS011;2482;49.154;8.254;2023-06-26T13:41:44;8.00;;;5.73;;
4933;SDS011;2482;49.154;8.254;2023-06-26T13:44:12;10.47;;;5.13;;
4933;SDS011;2482;49.154;8.254;2023-06-26T13:46:59;7.13;;;4.50;;
4933;SDS011;2482;49.154;8.254;2023-06-26T13:49:26;12.77;;;4.30;;
4933;SDS011;2482;49.154;8.254;2023-06-26T13:51:53;11.10;;;4.70;;
4933;SDS011;2482;49.154;8.254;2023-06-26T13:54:20;7.60;;;3.87;;
4933;SDS011;2482;49.154;8.254;2023-06-26T13:56:47;9.80;;;4.40;;
4933;SDS011;2482;49.154;8.254;2023-06-26T13:59:14;22.20;;;4.17;;
4933;SDS011;2482;49.154;8.254;2023-06-26T14:01:41;12.40;;;3.40;;
4933;SDS011;2482;49.154;8.254;2023-06-26T14:04:10;5.43;;;2.50;;
4933;SDS011;2482;49.154;8.254;2023-06-26T14:06:37;4.23;;;2.50;;
4933;SDS011;2482;49.154;8.254;2023-06-26T14:09:05;4.10;;;2.30;;
4933;SDS011;2482;49.154;8.254;2023-06-26T14:11:33;7.07;;;2.70;;
4933;SDS011;2482;49.154;8.254;2023-06-26T14:14:01;3.00;;;1.90;;
4933;SDS011;2482;49.154;8.254;2023-06-26T14:16:29;14.33;;;2.30;;
4933;SDS011;2482;49.154;8.254;2023-06-26T14:18:56;6.90;;;2.00;;
4933;SDS011;2482;49.154;8.254;2023-06-26T14:21:23;7.03;;;1.83;;
4933;SDS011;2482;49.154;8.254;2023-06-26T14:23:50;4.33;;;1.90;;
4933;SDS011;2482;49.154;8.254;2023-06-26T14:26:17;4.00;;;1.60;;
4933;SDS011;2482;49.154;8.254;2023-06-26T14:28:44;5.17;;;1.97;;
4933;SDS011;2482;49.154;8.254;2023-06-26T14:31:11;6.73;;;1.67;;
4933;SDS011;2482;49.154;8.254;2023-06-26T14:33:39;4.47;;;1.70;;
4933;SDS011;2482;49.154;8.254;2023-06-26T14:36:06;9.47;;;1.97;;
4933;SDS011;2482;49.154;8.254;2023-06-26T14:38:33;4.33;;;1.80;;
4933;SDS011;2482;49.154;8.254;2023-06-26T14:41:00;3.07;;;1.43;;
4933;SDS011;2482;49.154;8.254;2023-06-26T14:43:27;4.40;;;1.30;;
4933;SDS011;2482;49.154;8.254;2023-06-26T14:45:55;9.83;;;2.00;;
4933;SDS011;2482;49.154;8.254;2023-06-26T14:48:22;2.50;;;1.50;;
4933;SDS011;2482;49.154;8.254;2023-06-26T14:50:49;4.20;;;1.87;;
4933;SDS011;2482;49.154;8.254;2023-06-26T14:53:17;3.20;;;1.77;;
4933;SDS011;2482;49.154;8.254;2023-06-26T14:55:44;3.63;;;1.87;;
4933;SDS011;2482;49.154;8.254;2023-06-26T14:58:11;5.63;;;1.60;;
4933;SDS011;2482;49.154;8.254;2023-06-26T15:00:38;3.97;;;1.77;;
4933;SDS011;2482;49.154;8.254;2023-06-26T15:03:05;3.80;;;1.67;;
4933;SDS011;2482;49.154;8.254;2023-06-26T15:05:32;5.77;;;2.07;;
4933;SDS011;2482;49.154;8.254;2023-06-26T15:07:59;4.50;;;1.57;;
4933;SDS011;2482;49.154;8.254;2023-06-26T15:10:26;4.43;;;1.80;;
4933;SDS011;2482;49.154;8.254;2023-06-26T15:12:55;4.80;;;2.20;;
4933;SDS011;2482;49.154;8.254;2023-06-26T15:15:23;6.30;;;1.70;;
4933;SDS011;2482;49.154;8.254;2023-06-26T15:17:50;6.60;;;1.60;;
4933;SDS011;2482;49.154;8.254;2023-06-26T15:20:17;7.50;;;1.60;;
4933;SDS011;2482;49.154;8.254;2023-06-26T15:22:44;2.53;;;1.67;;
4933;SDS011;2482;49.154;8.254;2023-06-26T15:25:11;3.50;;;1.40;;
4933;SDS011;2482;49.154;8.254;2023-06-26T15:27:38;3.27;;;1.63;;
4933;SDS011;2482;49.154;8.254;2023-06-26T15:30:06;5.60;;;1.50;;
4933;SDS011;2482;49.154;8.254;2023-06-26T15:32:34;2.93;;;1.30;;